sensor_id;sensor_type;location;lat;lon;timestamp;P1;durP1;ratioP1;P2;durP2;ratioP2
47599;SDS011;33323;52.124;6.018;2023-01-29T00:02:16;22.95;;;12.07;;
47599;SDS011;33323;52.124;6.018;2023-01-29T00:04:44;21.55;;;10.18;;
47599;SDS011;33323;52.124;6.018;2023-01-29T00:07:11;25.73;;;12.00;;
47599;SDS011;33323;52.124;6.018;2023-01-29T00:09:38;23.60;;;11.35;;
47599;SDS011;33323;52.124;6.018;2023-01-29T00:12:08;25.85;;;12.05;;
47599;SDS011;33323;52.124;6.018;2023-01-29T00:14:35;23.60;;;10.85;;
47599;SDS011;33323;52.124;6.018;2023-01-29T00:17:03;20.30;;;11.60;;
47599;SDS011;33323;52.124;6.018;2023-01-29T00:19:31;21.90;;;11.73;;
47599;SDS011;33323;52.124;6.018;2023-01-29T00:21:58;20.63;;;10.77;;
47599;SDS011;33323;52.124;6.018;2023-01-29T00:24:25;24.42;;;11.57;;
47599;SDS011;33323;52.124;6.018;2023-01-29T00:26:52;21.23;;;10.50;;
47599;SDS011;33323;52.124;6.018;2023-01-29T00:29:19;21.65;;;9.98;;
47599;SDS011;33323;52.124;6.018;2023-01-29T00:31:47;25.13;;;12.63;;
47599;SDS011;33323;52.124;6.018;2023-01-29T00:34:14;20.33;;;10.57;;
47599;SDS011;33323;52.124;6.018;2023-01-29T00:36:41;17.85;;;10.82;;
47599;SDS011;33323;52.124;6.018;2023-01-29T00:39:11;19.10;;;11.68;;
47599;SDS011;33323;52.124;6.018;2023-01-29T00:41:38;25.88;;;12.50;;
47599;SDS011;33323;52.124;6.018;2023-01-29T00:44:24;18.88;;;11.15;;
47599;SDS011;33323;52.124;6.018;2023-01-29T00:47:10;21.02;;;11.65;;
47599;SDS011;33323;52.124;6.018;2023-01-29T00:49:56;26.30;;;12.85;;
47599;SDS011;33323;52.124;6.018;2023-01-29T00:52:23;25.23;;;11.95;;
47599;SDS011;33323;52.124;6.018;2023-01-29T00:54:52;25.00;;;12.32;;
47599;SDS011;33323;52.124;6.018;2023-01-29T00:57:22;23.38;;;12.55;;
47599;SDS011;33323;52.124;6.018;2023-01-29T00:59:52;21.70;;;11.25;;
47599;SDS011;33323;52.124;6.018;2023-01-29T01:02:20;21.42;;;10.45;;
47599;SDS011;33323;52.124;6.018;2023-01-29T01:05:06;23.02;;;11.27;;
47599;SDS011;33323;52.124;6.018;2023-01-29T01:07:39;19.55;;;10.32;;
47599;SDS011;33323;52.124;6.018;2023-01-29T01:10:08;20.02;;;11.02;;
47599;SDS011;33323;52.124;6.018;2023-01-29T01:12:54;21.40;;;11.13;;
47599;SDS011;33323;52.124;6.018;2023-01-29T01:15:28;22.50;;;12.05;;
47599;SDS011;33323;52.124;6.018;2023-01-29T01:18:05;24.63;;;12.05;;
47599;SDS011;33323;52.124;6.018;2023-01-29T01:20:33;23.02;;;11.15;;
47599;SDS011;33323;52.124;6.018;2023-01-29T01:23:01;22.00;;;11.90;;
47599;SDS011;33323;52.124;6.018;2023-01-29T01:25:28;23.88;;;11.88;;
47599;SDS011;33323;52.124;6.018;2023-01-29T01:27:57;22.13;;;12.13;;
47599;SDS011;33323;52.124;6.018;2023-01-29T01:30:28;18.25;;;10.20;;
47599;SDS011;33323;52.124;6.018;2023-01-29T01:32:57;23.30;;;11.10;;
47599;SDS011;33323;52.124;6.018;2023-01-29T01:35:24;22.40;;;10.18;;
47599;SDS011;33323;52.124;6.018;2023-01-29T01:37:51;23.50;;;11.30;;
47599;SDS011;33323;52.124;6.018;2023-01-29T01:40:23;21.08;;;10.85;;
47599;SDS011;33323;52.124;6.018;2023-01-29T01:42:52;22.27;;;10.35;;
47599;SDS011;33323;52.124;6.018;2023-01-29T01:45:33;23.25;;;10.70;;
47599;SDS011;33323;52.124;6.018;2023-01-29T01:50:57;21.60;;;10.15;;
47599;SDS011;33323;52.124;6.018;2023-01-29T01:53:31;21.05;;;11.60;;
47599;SDS011;33323;52.124;6.018;2023-01-29T01:56:05;22.63;;;12.30;;
47599;SDS011;33323;52.124;6.018;2023-01-29T01:58:42;26.23;;;12.20;;
47599;SDS011;33323;52.124;6.018;2023-01-29T02:01:16;20.13;;;10.50;;
47599;SDS011;33323;52.124;6.018;2023-01-29T02:03:46;22.90;;;12.07;;
47599;SDS011;33323;52.124;6.018;2023-01-29T02:06:39;18.83;;;9.80;;
47599;SDS011;33323;52.124;6.018;2023-01-29T02:09:28;19.63;;;10.85;;
47599;SDS011;33323;52.124;6.018;2023-01-29T02:12:12;22.67;;;11.73;;
47599;SDS011;33323;52.124;6.018;2023-01-29T02:14:41;21.52;;;11.18;;
47599;SDS011;33323;52.124;6.018;2023-01-29T02:17:10;20.65;;;11.45;;
47599;SDS011;33323;52.124;6.018;2023-01-29T02:29:08;25.23;;;12.07;;
47599;SDS011;33323;52.124;6.018;2023-01-29T02:33:09;22.52;;;12.32;;
47599;SDS011;33323;52.124;6.018;2023-01-29T02:39:03;19.98;;;12.48;;
47599;SDS011;33323;52.124;6.018;2023-01-29T02:45:03;22.98;;;10.98;;
47599;SDS011;33323;52.124;6.018;2023-01-29T02:58:30;21.67;;;11.10;;
47599;SDS011;33323;52.124;6.018;2023-01-29T03:01:14;20.55;;;10.73;;
47599;SDS011;33323;52.124;6.018;2023-01-29T03:03:57;23.85;;;12.85;;
47599;SDS011;33323;52.124;6.018;2023-01-29T03:06:37;25.27;;;12.57;;
47599;SDS011;33323;52.124;6.018;2023-01-29T03:09:19;21.45;;;12.18;;
47599;SDS011;33323;52.124;6.018;2023-01-29T03:11:54;21.33;;;11.77;;
47599;SDS011;33323;52.124;6.018;2023-01-29T03:14:46;25.92;;;12.27;;
47599;SDS011;33323;52.124;6.018;2023-01-29T03:17:36;20.73;;;11.43;;
47599;SDS011;33323;52.124;6.018;2023-01-29T03:20:53;20.77;;;11.52;;
47599;SDS011;33323;52.124;6.018;2023-01-29T03:23:52;19.88;;;10.60;;
47599;SDS011;33323;52.124;6.018;2023-01-29T03:26:40;23.30;;;11.70;;
47599;SDS011;33323;52.124;6.018;2023-01-29T03:29:32;22.38;;;11.38;;
47599;SDS011;33323;52.124;6.018;2023-01-29T03:32:24;26.77;;;10.55;;
47599;SDS011;33323;52.124;6.018;2023-01-29T03:34:57;24.65;;;13.10;;
47599;SDS011;33323;52.124;6.018;2023-01-29T03:40:07;20.75;;;10.73;;
47599;SDS011;33323;52.124;6.018;2023-01-29T03:48:38;20.15;;;11.02;;
47599;SDS011;33323;52.124;6.018;2023-01-29T03:51:22;20.63;;;10.55;;
47599;SDS011;33323;52.124;6.018;2023-01-29T03:54:12;20.02;;;11.55;;
47599;SDS011;33323;52.124;6.018;2023-01-29T03:57:34;20.88;;;10.82;;
47599;SDS011;33323;52.124;6.018;2023-01-29T04:00:25;26.63;;;13.40;;
47599;SDS011;33323;52.124;6.018;2023-01-29T04:03:04;21.92;;;11.43;;
47599;SDS011;33323;52.124;6.018;2023-01-29T04:05:51;18.65;;;11.02;;
47599;SDS011;33323;52.124;6.018;2023-01-29T04:08:33;20.98;;;11.02;;
47599;SDS011;33323;52.124;6.018;2023-01-29T04:11:10;19.90;;;10.93;;
47599;SDS011;33323;52.124;6.018;2023-01-29T04:13:42;20.48;;;10.45;;
47599;SDS011;33323;52.124;6.018;2023-01-29T04:16:15;23.63;;;11.68;;
47599;SDS011;33323;52.124;6.018;2023-01-29T04:18:57;25.45;;;12.18;;
47599;SDS011;33323;52.124;6.018;2023-01-29T04:21:29;19.48;;;11.43;;
47599;SDS011;33323;52.124;6.018;2023-01-29T04:23:57;21.90;;;10.48;;
47599;SDS011;33323;52.124;6.018;2023-01-29T04:37:55;24.67;;;12.35;;
47599;SDS011;33323;52.124;6.018;2023-01-29T04:46:16;28.30;;;13.27;;
47599;SDS011;33323;52.124;6.018;2023-01-29T04:52:23;20.30;;;10.50;;
47599;SDS011;33323;52.124;6.018;2023-01-29T04:55:20;26.88;;;13.75;;
47599;SDS011;33323;52.124;6.018;2023-01-29T05:00:41;24.50;;;13.52;;
47599;SDS011;33323;52.124;6.018;2023-01-29T05:03:11;25.10;;;13.57;;
47599;SDS011;33323;52.124;6.018;2023-01-29T05:05:41;24.80;;;14.02;;
47599;SDS011;33323;52.124;6.018;2023-01-29T05:08:13;28.98;;;12.95;;
47599;SDS011;33323;52.124;6.018;2023-01-29T05:10:45;28.05;;;14.50;;
47599;SDS011;33323;52.124;6.018;2023-01-29T05:13:14;25.08;;;14.38;;
47599;SDS011;33323;52.124;6.018;2023-01-29T05:15:45;23.90;;;13.85;;
47599;SDS011;33323;52.124;6.018;2023-01-29T05:18:30;22.60;;;12.55;;
47599;SDS011;33323;52.124;6.018;2023-01-29T05:20:58;25.80;;;14.65;;
47599;SDS011;33323;52.124;6.018;2023-01-29T05:23:30;24.67;;;14.35;;
47599;SDS011;33323;52.124;6.018;2023-01-29T05:25:57;28.25;;;13.73;;
47599;SDS011;33323;52.124;6.018;2023-01-29T05:28:25;26.65;;;14.35;;
47599;SDS011;33323;52.124;6.018;2023-01-29T05:30:53;26.50;;;12.73;;
47599;SDS011;33323;52.124;6.018;2023-01-29T05:33:25;24.20;;;13.43;;
47599;SDS011;33323;52.124;6.018;2023-01-29T05:35:55;28.50;;;14.48;;
47599;SDS011;33323;52.124;6.018;2023-01-29T05:38:25;20.85;;;10.80;;
47599;SDS011;33323;52.124;6.018;2023-01-29T05:40:53;23.20;;;13.85;;
47599;SDS011;33323;52.124;6.018;2023-01-29T05:43:21;27.38;;;13.30;;
47599;SDS011;33323;52.124;6.018;2023-01-29T05:45:56;27.27;;;14.23;;
47599;SDS011;33323;52.124;6.018;2023-01-29T05:48:26;25.30;;;13.65;;
47599;SDS011;33323;52.124;6.018;2023-01-29T05:51:00;25.60;;;14.55;;
47599;SDS011;33323;52.124;6.018;2023-01-29T05:53:29;28.35;;;14.35;;
47599;SDS011;33323;52.124;6.018;2023-01-29T05:55:59;28.38;;;14.00;;
47599;SDS011;33323;52.124;6.018;2023-01-29T05:58:29;28.42;;;13.10;;
47599;SDS011;33323;52.124;6.018;2023-01-29T06:01:06;27.92;;;13.52;;
47599;SDS011;33323;52.124;6.018;2023-01-29T06:03:36;23.20;;;12.52;;
47599;SDS011;33323;52.124;6.018;2023-01-29T06:06:03;25.92;;;14.52;;
47599;SDS011;33323;52.124;6.018;2023-01-29T06:08:31;24.42;;;14.00;;
47599;SDS011;33323;52.124;6.018;2023-01-29T06:10:58;25.90;;;12.65;;
47599;SDS011;33323;52.124;6.018;2023-01-29T06:13:25;27.85;;;14.00;;
47599;SDS011;33323;52.124;6.018;2023-01-29T06:15:53;26.15;;;13.30;;
47599;SDS011;33323;52.124;6.018;2023-01-29T06:18:21;26.02;;;12.85;;
47599;SDS011;33323;52.124;6.018;2023-01-29T06:20:48;22.45;;;13.02;;
47599;SDS011;33323;52.124;6.018;2023-01-29T06:23:15;26.20;;;13.30;;
47599;SDS011;33323;52.124;6.018;2023-01-29T06:25:42;28.85;;;14.23;;
47599;SDS011;33323;52.124;6.018;2023-01-29T06:28:09;30.50;;;14.60;;
47599;SDS011;33323;52.124;6.018;2023-01-29T06:30:37;24.95;;;13.82;;
47599;SDS011;33323;52.124;6.018;2023-01-29T06:33:04;28.58;;;15.70;;
47599;SDS011;33323;52.124;6.018;2023-01-29T06:35:31;23.48;;;15.07;;
47599;SDS011;33323;52.124;6.018;2023-01-29T06:37:59;27.33;;;15.02;;
47599;SDS011;33323;52.124;6.018;2023-01-29T06:40:26;31.52;;;15.20;;
47599;SDS011;33323;52.124;6.018;2023-01-29T06:42:53;27.90;;;14.63;;
47599;SDS011;33323;52.124;6.018;2023-01-29T06:45:20;28.77;;;16.00;;
47599;SDS011;33323;52.124;6.018;2023-01-29T06:47:48;35.67;;;16.27;;
47599;SDS011;33323;52.124;6.018;2023-01-29T06:50:21;27.40;;;15.77;;
47599;SDS011;33323;52.124;6.018;2023-01-29T06:59:31;26.55;;;14.15;;
47599;SDS011;33323;52.124;6.018;2023-01-29T07:05:10;28.63;;;16.23;;
47599;SDS011;33323;52.124;6.018;2023-01-29T07:11:10;27.15;;;15.02;;
47599;SDS011;33323;52.124;6.018;2023-01-29T07:14:16;35.00;;;16.08;;
47599;SDS011;33323;52.124;6.018;2023-01-29T07:19:38;26.77;;;14.77;;
47599;SDS011;33323;52.124;6.018;2023-01-29T07:22:59;31.83;;;15.60;;
47599;SDS011;33323;52.124;6.018;2023-01-29T07:25:29;23.45;;;13.13;;
47599;SDS011;33323;52.124;6.018;2023-01-29T07:28:02;26.30;;;14.68;;
47599;SDS011;33323;52.124;6.018;2023-01-29T07:30:40;34.33;;;16.38;;
47599;SDS011;33323;52.124;6.018;2023-01-29T07:33:07;28.27;;;14.07;;
47599;SDS011;33323;52.124;6.018;2023-01-29T07:35:38;31.92;;;15.30;;
47599;SDS011;33323;52.124;6.018;2023-01-29T07:38:09;31.90;;;15.18;;
47599;SDS011;33323;52.124;6.018;2023-01-29T07:40:44;29.52;;;15.95;;
47599;SDS011;33323;52.124;6.018;2023-01-29T07:43:13;31.25;;;16.17;;
47599;SDS011;33323;52.124;6.018;2023-01-29T07:46:02;27.35;;;14.90;;
47599;SDS011;33323;52.124;6.018;2023-01-29T08:44:20;30.20;;;14.05;;
47599;SDS011;33323;52.124;6.018;2023-01-29T08:46:50;21.00;;;12.35;;
47599;SDS011;33323;52.124;6.018;2023-01-29T08:49:22;30.45;;;12.85;;
47599;SDS011;33323;52.124;6.018;2023-01-29T08:52:47;25.98;;;13.68;;
47599;SDS011;33323;52.124;6.018;2023-01-29T08:55:15;27.02;;;14.27;;
47599;SDS011;33323;52.124;6.018;2023-01-29T08:57:44;23.75;;;13.77;;
47599;SDS011;33323;52.124;6.018;2023-01-29T09:00:21;24.95;;;13.63;;
47599;SDS011;33323;52.124;6.018;2023-01-29T09:02:49;25.40;;;12.60;;
47599;SDS011;33323;52.124;6.018;2023-01-29T09:05:19;27.27;;;14.60;;
47599;SDS011;33323;52.124;6.018;2023-01-29T09:07:46;23.33;;;12.38;;
47599;SDS011;33323;52.124;6.018;2023-01-29T09:10:19;30.33;;;12.68;;
47599;SDS011;33323;52.124;6.018;2023-01-29T09:12:46;28.95;;;14.77;;
47599;SDS011;33323;52.124;6.018;2023-01-29T09:15:15;23.20;;;12.43;;
47599;SDS011;33323;52.124;6.018;2023-01-29T09:17:43;26.42;;;12.93;;
47599;SDS011;33323;52.124;6.018;2023-01-29T09:20:11;29.02;;;13.38;;
47599;SDS011;33323;52.124;6.018;2023-01-29T09:22:38;23.35;;;12.27;;
47599;SDS011;33323;52.124;6.018;2023-01-29T09:25:06;18.83;;;10.55;;
47599;SDS011;33323;52.124;6.018;2023-01-29T09:27:34;23.00;;;13.43;;
47599;SDS011;33323;52.124;6.018;2023-01-29T09:30:02;21.75;;;11.75;;
47599;SDS011;33323;52.124;6.018;2023-01-29T09:32:32;21.50;;;12.15;;
47599;SDS011;33323;52.124;6.018;2023-01-29T09:35:18;22.25;;;13.40;;
47599;SDS011;33323;52.124;6.018;2023-01-29T09:37:50;24.63;;;11.45;;
47599;SDS011;33323;52.124;6.018;2023-01-29T09:43:26;22.95;;;12.68;;
47599;SDS011;33323;52.124;6.018;2023-01-29T09:46:22;16.48;;;9.80;;
47599;SDS011;33323;52.124;6.018;2023-01-29T09:58:09;23.98;;;13.45;;
47599;SDS011;33323;52.124;6.018;2023-01-29T10:01:02;24.15;;;12.27;;
47599;SDS011;33323;52.124;6.018;2023-01-29T10:18:46;22.02;;;11.38;;
47599;SDS011;33323;52.124;6.018;2023-01-29T10:24:34;23.40;;;11.63;;
47599;SDS011;33323;52.124;6.018;2023-01-29T10:27:12;24.00;;;13.10;;
47599;SDS011;33323;52.124;6.018;2023-01-29T10:29:43;18.85;;;11.45;;
47599;SDS011;33323;52.124;6.018;2023-01-29T10:32:14;21.65;;;10.93;;
47599;SDS011;33323;52.124;6.018;2023-01-29T10:34:49;18.75;;;10.25;;
47599;SDS011;33323;52.124;6.018;2023-01-29T10:37:22;19.95;;;11.30;;
47599;SDS011;33323;52.124;6.018;2023-01-29T10:40:17;18.52;;;12.20;;
47599;SDS011;33323;52.124;6.018;2023-01-29T10:42:52;15.50;;;9.18;;
47599;SDS011;33323;52.124;6.018;2023-01-29T10:49:00;16.08;;;9.68;;
47599;SDS011;33323;52.124;6.018;2023-01-29T10:52:04;23.08;;;10.50;;
47599;SDS011;33323;52.124;6.018;2023-01-29T10:55:11;21.02;;;10.43;;
47599;SDS011;33323;52.124;6.018;2023-01-29T11:01:04;19.58;;;10.80;;
47599;SDS011;33323;52.124;6.018;2023-01-29T11:03:34;18.95;;;10.13;;
47599;SDS011;33323;52.124;6.018;2023-01-29T11:11:42;18.67;;;11.02;;
47599;SDS011;33323;52.124;6.018;2023-01-29T11:14:23;16.63;;;10.30;;
47599;SDS011;33323;52.124;6.018;2023-01-29T11:17:17;15.00;;;8.25;;
47599;SDS011;33323;52.124;6.018;2023-01-29T11:19:49;24.90;;;10.85;;
47599;SDS011;33323;52.124;6.018;2023-01-29T11:22:26;19.90;;;11.35;;
47599;SDS011;33323;52.124;6.018;2023-01-29T11:25:09;20.80;;;10.98;;
47599;SDS011;33323;52.124;6.018;2023-01-29T11:27:55;19.20;;;10.00;;
47599;SDS011;33323;52.124;6.018;2023-01-29T11:30:38;13.90;;;7.80;;
47599;SDS011;33323;52.124;6.018;2023-01-29T11:33:25;15.30;;;8.65;;
47599;SDS011;33323;52.124;6.018;2023-01-29T11:35:54;20.42;;;12.18;;
47599;SDS011;33323;52.124;6.018;2023-01-29T11:38:25;19.88;;;11.45;;
47599;SDS011;33323;52.124;6.018;2023-01-29T11:41:04;22.25;;;10.25;;
47599;SDS011;33323;52.124;6.018;2023-01-29T11:43:44;15.77;;;8.98;;
47599;SDS011;33323;52.124;6.018;2023-01-29T11:46:16;19.17;;;11.52;;
47599;SDS011;33323;52.124;6.018;2023-01-29T11:48:45;16.25;;;9.45;;
47599;SDS011;33323;52.124;6.018;2023-01-29T11:51:20;19.50;;;11.80;;
47599;SDS011;33323;52.124;6.018;2023-01-29T11:53:57;14.98;;;9.50;;
47599;SDS011;33323;52.124;6.018;2023-01-29T11:56:31;21.80;;;12.25;;
47599;SDS011;33323;52.124;6.018;2023-01-29T11:59:25;19.30;;;10.80;;
47599;SDS011;33323;52.124;6.018;2023-01-29T12:05:00;24.20;;;12.77;;
47599;SDS011;33323;52.124;6.018;2023-01-29T12:07:35;21.13;;;12.45;;
47599;SDS011;33323;52.124;6.018;2023-01-29T12:15:41;22.30;;;12.65;;
47599;SDS011;33323;52.124;6.018;2023-01-29T12:18:20;24.35;;;12.77;;
47599;SDS011;33323;52.124;6.018;2023-01-29T12:21:02;22.58;;;14.05;;
47599;SDS011;33323;52.124;6.018;2023-01-29T12:26:46;20.05;;;12.27;;
47599;SDS011;33323;52.124;6.018;2023-01-29T12:35:00;29.17;;;15.73;;
47599;SDS011;33323;52.124;6.018;2023-01-29T12:40:39;29.20;;;14.18;;
47599;SDS011;33323;52.124;6.018;2023-01-29T12:49:41;28.25;;;15.52;;
47599;SDS011;33323;52.124;6.018;2023-01-29T13:00:48;27.85;;;14.65;;
47599;SDS011;33323;52.124;6.018;2023-01-29T13:10:12;29.70;;;14.93;;
47599;SDS011;33323;52.124;6.018;2023-01-29T13:13:21;27.92;;;14.32;;
47599;SDS011;33323;52.124;6.018;2023-01-29T13:16:06;37.38;;;17.85;;
47599;SDS011;33323;52.124;6.018;2023-01-29T13:18:57;34.17;;;16.30;;
47599;SDS011;33323;52.124;6.018;2023-01-29T13:28:38;34.13;;;16.88;;
47599;SDS011;33323;52.124;6.018;2023-01-29T13:32:17;35.25;;;18.70;;
47599;SDS011;33323;52.124;6.018;2023-01-29T13:34:59;31.45;;;17.20;;
47599;SDS011;33323;52.124;6.018;2023-01-29T13:37:32;42.08;;;19.13;;
47599;SDS011;33323;52.124;6.018;2023-01-29T13:40:04;37.38;;;18.67;;
47599;SDS011;33323;52.124;6.018;2023-01-29T13:42:51;38.35;;;19.70;;
47599;SDS011;33323;52.124;6.018;2023-01-29T13:45:24;31.75;;;18.00;;
47599;SDS011;33323;52.124;6.018;2023-01-29T13:48:09;34.90;;;18.17;;
47599;SDS011;33323;52.124;6.018;2023-01-29T13:51:02;37.03;;;18.65;;
47599;SDS011;33323;52.124;6.018;2023-01-29T13:53:53;37.88;;;18.15;;
47599;SDS011;33323;52.124;6.018;2023-01-29T13:57:00;33.95;;;18.55;;
47599;SDS011;33323;52.124;6.018;2023-01-29T14:02:25;36.13;;;19.23;;
47599;SDS011;33323;52.124;6.018;2023-01-29T14:05:31;37.85;;;21.33;;
47599;SDS011;33323;52.124;6.018;2023-01-29T14:11:34;38.67;;;19.60;;
47599;SDS011;33323;52.124;6.018;2023-01-29T14:17:27;36.97;;;17.73;;
47599;SDS011;33323;52.124;6.018;2023-01-29T14:23:47;33.65;;;18.45;;
47599;SDS011;33323;52.124;6.018;2023-01-29T14:29:00;34.25;;;18.42;;
47599;SDS011;33323;52.124;6.018;2023-01-29T14:35:07;32.90;;;18.08;;
47599;SDS011;33323;52.124;6.018;2023-01-29T14:37:49;43.80;;;19.58;;
47599;SDS011;33323;52.124;6.018;2023-01-29T14:40:24;32.72;;;17.80;;
47599;SDS011;33323;52.124;6.018;2023-01-29T14:45:39;34.30;;;18.13;;
47599;SDS011;33323;52.124;6.018;2023-01-29T14:51:19;34.33;;;17.73;;
47599;SDS011;33323;52.124;6.018;2023-01-29T14:57:23;29.55;;;16.48;;
47599;SDS011;33323;52.124;6.018;2023-01-29T15:00:13;31.58;;;16.02;;
47599;SDS011;33323;52.124;6.018;2023-01-29T15:02:55;37.03;;;17.42;;
47599;SDS011;33323;52.124;6.018;2023-01-29T15:05:31;28.95;;;16.23;;
47599;SDS011;33323;52.124;6.018;2023-01-29T15:08:07;32.33;;;18.05;;
47599;SDS011;33323;52.124;6.018;2023-01-29T15:11:19;34.05;;;18.02;;
47599;SDS011;33323;52.124;6.018;2023-01-29T15:19:54;25.85;;;14.85;;
47599;SDS011;33323;52.124;6.018;2023-01-29T15:22:33;32.22;;;17.90;;
47599;SDS011;33323;52.124;6.018;2023-01-29T15:27:10;33.95;;;16.90;;
47599;SDS011;33323;52.124;6.018;2023-01-29T15:30:04;34.13;;;17.92;;
47599;SDS011;33323;52.124;6.018;2023-01-29T15:33:43;26.15;;;14.25;;
47599;SDS011;33323;52.124;6.018;2023-01-29T15:36:20;29.75;;;16.13;;
47599;SDS011;33323;52.124;6.018;2023-01-29T15:41:45;25.13;;;13.13;;
47599;SDS011;33323;52.124;6.018;2023-01-29T15:44:15;34.60;;;18.60;;
47599;SDS011;33323;52.124;6.018;2023-01-29T15:46:57;33.83;;;18.58;;
47599;SDS011;33323;52.124;6.018;2023-01-29T15:52:40;33.90;;;15.35;;
47599;SDS011;33323;52.124;6.018;2023-01-29T15:58:34;25.13;;;14.00;;
47599;SDS011;33323;52.124;6.018;2023-01-29T16:01:04;23.15;;;13.77;;
47599;SDS011;33323;52.124;6.018;2023-01-29T16:03:35;33.45;;;17.75;;
47599;SDS011;33323;52.124;6.018;2023-01-29T16:06:05;35.63;;;16.77;;
47599;SDS011;33323;52.124;6.018;2023-01-29T16:08:37;31.73;;;16.98;;
47599;SDS011;33323;52.124;6.018;2023-01-29T16:11:06;24.15;;;12.27;;
47599;SDS011;33323;52.124;6.018;2023-01-29T16:13:43;37.13;;;18.40;;
47599;SDS011;33323;52.124;6.018;2023-01-29T16:16:48;31.63;;;15.25;;
47599;SDS011;33323;52.124;6.018;2023-01-29T16:29:32;30.17;;;17.77;;
47599;SDS011;33323;52.124;6.018;2023-01-29T16:32:03;28.65;;;14.98;;
47599;SDS011;33323;52.124;6.018;2023-01-29T16:34:39;34.83;;;17.38;;
47599;SDS011;33323;52.124;6.018;2023-01-29T16:37:17;36.20;;;18.90;;
47599;SDS011;33323;52.124;6.018;2023-01-29T16:49:00;28.65;;;14.05;;
47599;SDS011;33323;52.124;6.018;2023-01-29T16:51:38;37.33;;;18.02;;
47599;SDS011;33323;52.124;6.018;2023-01-29T16:54:13;42.65;;;19.25;;
47599;SDS011;33323;52.124;6.018;2023-01-29T16:56:43;27.48;;;14.50;;
47599;SDS011;33323;52.124;6.018;2023-01-29T16:59:17;24.65;;;14.15;;
47599;SDS011;33323;52.124;6.018;2023-01-29T17:01:56;34.35;;;18.05;;
47599;SDS011;33323;52.124;6.018;2023-01-29T17:04:24;36.42;;;19.27;;
47599;SDS011;33323;52.124;6.018;2023-01-29T17:06:55;33.20;;;16.48;;
47599;SDS011;33323;52.124;6.018;2023-01-29T17:09:27;40.55;;;19.05;;
47599;SDS011;33323;52.124;6.018;2023-01-29T17:12:01;32.05;;;16.60;;
47599;SDS011;33323;52.124;6.018;2023-01-29T17:14:32;43.03;;;19.60;;
47599;SDS011;33323;52.124;6.018;2023-01-29T17:17:15;28.63;;;13.20;;
47599;SDS011;33323;52.124;6.018;2023-01-29T17:19:45;29.08;;;14.48;;
47599;SDS011;33323;52.124;6.018;2023-01-29T17:22:14;30.45;;;16.55;;
47599;SDS011;33323;52.124;6.018;2023-01-29T17:24:42;35.70;;;17.95;;
47599;SDS011;33323;52.124;6.018;2023-01-29T17:27:19;30.02;;;14.32;;
47599;SDS011;33323;52.124;6.018;2023-01-29T17:29:48;33.92;;;17.02;;
47599;SDS011;33323;52.124;6.018;2023-01-29T17:32:17;25.02;;;13.43;;
47599;SDS011;33323;52.124;6.018;2023-01-29T17:34:45;34.05;;;16.92;;
47599;SDS011;33323;52.124;6.018;2023-01-29T17:37:13;36.78;;;18.08;;
47599;SDS011;33323;52.124;6.018;2023-01-29T17:39:42;36.10;;;19.55;;
47599;SDS011;33323;52.124;6.018;2023-01-29T17:42:13;39.03;;;18.83;;
47599;SDS011;33323;52.124;6.018;2023-01-29T17:44:41;32.83;;;16.48;;
47599;SDS011;33323;52.124;6.018;2023-01-29T17:47:12;33.50;;;17.02;;
47599;SDS011;33323;52.124;6.018;2023-01-29T17:49:40;33.13;;;16.17;;
47599;SDS011;33323;52.124;6.018;2023-01-29T17:52:11;34.30;;;15.95;;
47599;SDS011;33323;52.124;6.018;2023-01-29T17:54:38;39.83;;;19.27;;
47599;SDS011;33323;52.124;6.018;2023-01-29T17:57:05;33.53;;;17.25;;
47599;SDS011;33323;52.124;6.018;2023-01-29T17:59:36;32.20;;;16.23;;
47599;SDS011;33323;52.124;6.018;2023-01-29T18:02:12;38.42;;;19.05;;
47599;SDS011;33323;52.124;6.018;2023-01-29T18:04:55;30.73;;;15.57;;
47599;SDS011;33323;52.124;6.018;2023-01-29T18:07:22;37.45;;;17.85;;
47599;SDS011;33323;52.124;6.018;2023-01-29T18:09:48;27.90;;;13.68;;
47599;SDS011;33323;52.124;6.018;2023-01-29T18:12:15;38.60;;;17.55;;
47599;SDS011;33323;52.124;6.018;2023-01-29T18:14:42;25.92;;;12.75;;
47599;SDS011;33323;52.124;6.018;2023-01-29T18:17:09;27.88;;;14.23;;
47599;SDS011;33323;52.124;6.018;2023-01-29T18:19:36;32.95;;;17.80;;
47599;SDS011;33323;52.124;6.018;2023-01-29T18:22:03;31.13;;;14.60;;
47599;SDS011;33323;52.124;6.018;2023-01-29T18:24:30;16.30;;;9.00;;
47599;SDS011;33323;52.124;6.018;2023-01-29T18:26:57;41.30;;;17.83;;
47599;SDS011;33323;52.124;6.018;2023-01-29T18:29:24;32.53;;;16.88;;
47599;SDS011;33323;52.124;6.018;2023-01-29T18:31:55;32.08;;;16.90;;
47599;SDS011;33323;52.124;6.018;2023-01-29T18:34:22;24.55;;;12.25;;
47599;SDS011;33323;52.124;6.018;2023-01-29T18:36:49;34.60;;;17.48;;
47599;SDS011;33323;52.124;6.018;2023-01-29T18:39:16;32.72;;;16.08;;
47599;SDS011;33323;52.124;6.018;2023-01-29T18:41:43;22.85;;;10.50;;
47599;SDS011;33323;52.124;6.018;2023-01-29T18:44:10;30.13;;;15.18;;
47599;SDS011;33323;52.124;6.018;2023-01-29T18:46:37;34.70;;;14.23;;
47599;SDS011;33323;52.124;6.018;2023-01-29T18:49:04;29.80;;;15.10;;
47599;SDS011;33323;52.124;6.018;2023-01-29T18:51:31;32.58;;;16.27;;
47599;SDS011;33323;52.124;6.018;2023-01-29T18:53:58;31.90;;;14.32;;
47599;SDS011;33323;52.124;6.018;2023-01-29T18:56:26;33.55;;;15.77;;
47599;SDS011;33323;52.124;6.018;2023-01-29T18:58:53;32.80;;;15.02;;
47599;SDS011;33323;52.124;6.018;2023-01-29T19:01:21;22.02;;;11.00;;
47599;SDS011;33323;52.124;6.018;2023-01-29T19:03:48;30.83;;;16.10;;
47599;SDS011;33323;52.124;6.018;2023-01-29T19:06:15;37.33;;;15.77;;
47599;SDS011;33323;52.124;6.018;2023-01-29T19:08:42;33.55;;;16.20;;
47599;SDS011;33323;52.124;6.018;2023-01-29T19:11:09;29.50;;;16.75;;
47599;SDS011;33323;52.124;6.018;2023-01-29T19:13:37;28.15;;;14.52;;
47599;SDS011;33323;52.124;6.018;2023-01-29T19:16:09;31.10;;;15.77;;
47599;SDS011;33323;52.124;6.018;2023-01-29T19:18:39;28.50;;;14.98;;
47599;SDS011;33323;52.124;6.018;2023-01-29T19:21:08;28.70;;;11.98;;
47599;SDS011;33323;52.124;6.018;2023-01-29T19:23:38;34.58;;;16.13;;
47599;SDS011;33323;52.124;6.018;2023-01-29T19:26:06;28.10;;;15.32;;
47599;SDS011;33323;52.124;6.018;2023-01-29T19:28:34;30.55;;;17.00;;
47599;SDS011;33323;52.124;6.018;2023-01-29T19:31:01;31.88;;;16.25;;
47599;SDS011;33323;52.124;6.018;2023-01-29T19:33:29;31.52;;;14.50;;
47599;SDS011;33323;52.124;6.018;2023-01-29T19:35:57;33.83;;;15.38;;
47599;SDS011;33323;52.124;6.018;2023-01-29T19:38:25;26.40;;;12.82;;
47599;SDS011;33323;52.124;6.018;2023-01-29T19:40:52;33.33;;;15.55;;
47599;SDS011;33323;52.124;6.018;2023-01-29T19:43:29;33.30;;;15.95;;
47599;SDS011;33323;52.124;6.018;2023-01-29T19:45:58;37.72;;;16.45;;
47599;SDS011;33323;52.124;6.018;2023-01-29T19:48:27;34.03;;;16.65;;
47599;SDS011;33323;52.124;6.018;2023-01-29T19:50:58;28.70;;;14.02;;
47599;SDS011;33323;52.124;6.018;2023-01-29T19:53:30;25.65;;;14.38;;
47599;SDS011;33323;52.124;6.018;2023-01-29T19:55:59;33.60;;;16.10;;
47599;SDS011;33323;52.124;6.018;2023-01-29T19:58:29;30.98;;;14.63;;
47599;SDS011;33323;52.124;6.018;2023-01-29T20:01:00;29.75;;;13.63;;